Time;durP1;ratioP1;P1;durP2;ratioP2;P2;SDS_P1;SDS_P2;PMS_P1;PMS_P2;Temp;Humidity;BMP_temperature;BMP_pressure;BME280_temperature;BME280_humidity;BME280_pressure;Samples;Min_cycle;Max_cycle;Signal;HPM_P1;HPM_P2
2022/08/19 00:01:26;;;;;;;2.42;1.52;;;;;;;;;;5036902;28;20033;-80
2022/08/19 00:03:51;;;;;;;5.97;1.30;;;;;;;;;;5044431;28;20036;-80
2022/08/19 00:06:16;;;;;;;4.65;1.70;;;;;;;;;;5036892;28;20017;-80
2022/08/19 00:08:42;;;;;;;4.57;1.63;;;;;;;;;;5045192;28;20091;-80
2022/08/19 00:11:08;;;;;;;3.75;1.85;;;;;;;;;;5046221;28;20021;-80
2022/08/19 00:13:33;;;;;;;2.47;1.13;;;;;;;;;;5036717;28;20021;-80
2022/08/19 00:15:59;;;;;;;2.67;1.10;;;;;;;;;;5042125;28;20032;-80
2022/08/19 00:18:25;;;;;;;3.42;1.30;;;;;;;;;;5035398;28;20039;-80
2022/08/19 00:20:50;;;;;;;3.33;1.00;;;;;;;;;;5038176;28;20028;-80
2022/08/19 00:23:15;;;;;;;2.40;1.10;;;;;;;;;;5034603;28;20060;-80
2022/08/19 00:25:41;;;;;;;2.03;0.85;;;;;;;;;;5046657;28;20060;-80
2022/08/19 00:28:06;;;;;;;1.90;0.98;;;;;;;;;;5033919;28;20021;-80
2022/08/19 00:30:31;;;;;;;2.42;1.10;;;;;;;;;;5039098;28;20039;-79
2022/08/19 00:32:57;;;;;;;2.40;1.00;;;;;;;;;;5032683;28;20021;-80
2022/08/19 00:35:22;;;;;;;3.17;1.25;;;;;;;;;;5042226;28;20044;-80
2022/08/19 00:37:48;;;;;;;2.80;1.15;;;;;;;;;;5035438;28;20065;-80
2022/08/19 00:40:14;;;;;;;4.50;1.10;;;;;;;;;;5048099;28;20042;-81
2022/08/19 00:42:39;;;;;;;3.15;1.30;;;;;;;;;;5036058;28;20040;-80
2022/08/19 00:45:09;;;;;;;3.88;1.00;;;;;;;;;;5037853;28;20484;-80
2022/08/19 00:47:34;;;;;;;2.78;1.10;;;;;;;;;;5042976;28;20436;-80
2022/08/19 00:50:00;;;;;;;2.35;1.13;;;;;;;;;;5037874;28;20033;-80
2022/08/19 00:52:36;;;;;;;2.78;1.17;;;;;;;;;;5048200;28;20029;-81
2022/08/19 00:55:03;;;;;;;4.35;1.20;;;;;;;;;;5029787;28;20037;-81
2022/08/19 00:57:36;;;;;;;2.33;1.13;;;;;;;;;;5038193;28;20040;-80
2022/08/19 01:00:04;;;;;;;4.97;1.20;;;;;;;;;;5043420;28;20056;-80
2022/08/19 01:02:30;;;;;;;2.97;1.30;;;;;;;;;;5039755;28;20033;-81
2022/08/19 01:04:56;;;;;;;2.35;1.02;;;;;;;;;;5048078;28;20451;-80
2022/08/19 01:07:21;;;;;;;6.80;1.40;;;;;;;;;;5040661;28;20029;-80
2022/08/19 01:09:47;;;;;;;3.15;1.45;;;;;;;;;;5046985;28;20045;-80
2022/08/19 01:12:12;;;;;;;2.42;1.40;;;;;;;;;;5053791;28;20096;-80
2022/08/19 01:14:39;;;;;;;2.10;1.20;;;;;;;;;;5054358;28;20392;-80
2022/08/19 01:17:05;;;;;;;5.00;1.95;;;;;;;;;;5040254;28;20460;-80
2022/08/19 01:19:33;;;;;;;4.13;1.88;;;;;;;;;;5040761;28;20036;-80
2022/08/19 01:22:21;;;;;;;4.50;2.00;;;;;;;;;;5040639;28;20381;-80
2022/08/19 01:24:46;;;;;;;5.60;2.00;;;;;;;;;;5051482;28;20068;-80
2022/08/19 01:27:11;;;;;;;7.28;2.38;;;;;;;;;;5048349;28;20507;-80
2022/08/19 01:29:38;;;;;;;4.55;2.20;;;;;;;;;;5046015;28;20037;-79
2022/08/19 01:32:04;;;;;;;4.70;2.03;;;;;;;;;;5043050;28;20018;-80
2022/08/19 01:34:29;;;;;;;4.78;2.33;;;;;;;;;;5051323;28;20044;-80
2022/08/19 01:36:54;;;;;;;8.68;2.25;;;;;;;;;;5046788;28;20036;-80
2022/08/19 01:39:21;;;;;;;9.23;2.00;;;;;;;;;;5039660;28;20025;-80
2022/08/19 01:41:47;;;;;;;5.78;2.28;;;;;;;;;;5039907;28;20425;-81
2022/08/19 01:44:13;;;;;;;4.80;2.35;;;;;;;;;;5048461;28;20074;-80
2022/08/19 01:46:39;;;;;;;6.95;2.35;;;;;;;;;;5053177;28;20021;-80
2022/08/19 01:49:05;;;;;;;5.07;2.70;;;;;;;;;;5049103;28;20554;-81
2022/08/19 01:51:30;;;;;;;6.88;2.63;;;;;;;;;;5047910;28;20040;-80
2022/08/19 01:53:56;;;;;;;8.43;2.78;;;;;;;;;;5041888;28;20127;-81
2022/08/19 01:56:22;;;;;;;6.22;3.03;;;;;;;;;;5046896;28;20112;-82
2022/08/19 01:59:07;;;;;;;7.72;3.40;;;;;;;;;;5044517;28;20033;-82
2022/08/19 02:01:34;;;;;;;11.88;4.57;;;;;;;;;;5042176;28;20092;-83
2022/08/19 02:04:00;;;;;;;9.30;4.53;;;;;;;;;;5044122;28;20026;-83
2022/08/19 02:06:25;;;;;;;14.30;4.60;;;;;;;;;;5040413;28;20045;-82
2022/08/19 02:08:51;;;;;;;10.55;4.57;;;;;;;;;;5044140;28;20040;-83
2022/08/19 02:11:20;;;;;;;10.02;4.93;;;;;;;;;;5048984;28;20033;-83
2022/08/19 02:13:46;;;;;;;10.32;4.40;;;;;;;;;;5046229;28;20524;-82
2022/08/19 02:16:11;;;;;;;13.35;5.22;;;;;;;;;;5047136;28;20033;-83
2022/08/19 02:18:37;;;;;;;14.57;5.22;;;;;;;;;;5044129;28;20041;-83
2022/08/19 02:21:02;;;;;;;12.52;4.53;;;;;;;;;;5047299;28;20025;-83
2022/08/19 02:23:27;;;;;;;11.63;5.10;;;;;;;;;;5036630;28;20061;-83
2022/08/19 02:25:53;;;;;;;9.75;4.40;;;;;;;;;;5043425;28;20033;-83
2022/08/19 02:28:18;;;;;;;10.15;3.60;;;;;;;;;;5047610;28;20014;-82
2022/08/19 02:30:43;;;;;;;12.70;4.63;;;;;;;;;;5047653;28;20079;-82
2022/08/19 02:33:08;;;;;;;12.85;4.80;;;;;;;;;;5045017;28;20122;-82
2022/08/19 02:35:34;;;;;;;12.18;4.10;;;;;;;;;;5037654;28;20097;-81
2022/08/19 02:40:49;;;;;;;27.67;4.78;;;;;;;;;;5037200;28;20044;-80
2022/08/19 02:43:15;;;;;;;12.38;4.78;;;;;;;;;;5032358;28;20492;-81
2022/08/19 02:45:40;;;;;;;12.18;4.95;;;;;;;;;;5038624;28;20033;-81
2022/08/19 02:48:06;;;;;;;12.18;5.07;;;;;;;;;;5044306;28;20026;-80
2022/08/19 02:50:31;;;;;;;19.98;5.22;;;;;;;;;;5043734;28;20102;-80
2022/08/19 02:52:57;;;;;;;12.15;4.93;;;;;;;;;;5041290;28;20041;-80
2022/08/19 02:55:22;;;;;;;10.90;5.22;;;;;;;;;;5042523;28;20029;-81
2022/08/19 02:57:47;;;;;;;13.82;5.60;;;;;;;;;;5044521;28;20084;-81
2022/08/19 03:00:13;;;;;;;20.35;5.57;;;;;;;;;;5037735;28;20033;-81
2022/08/19 03:02:39;;;;;;;14.52;5.00;;;;;;;;;;5039030;28;20111;-81
2022/08/19 03:05:05;;;;;;;12.18;5.13;;;;;;;;;;5052074;28;20029;-80
2022/08/19 03:07:30;;;;;;;16.88;4.85;;;;;;;;;;5047860;28;20412;-80
2022/08/19 03:09:55;;;;;;;12.45;4.85;;;;;;;;;;5044051;28;20041;-81
2022/08/19 03:12:21;;;;;;;13.27;4.88;;;;;;;;;;5050732;28;20025;-82
2022/08/19 03:14:46;;;;;;;10.90;4.93;;;;;;;;;;5046368;28;20516;-82
2022/08/19 03:17:12;;;;;;;10.80;4.38;;;;;;;;;;5045645;28;20453;-82
2022/08/19 03:19:38;;;;;;;13.63;4.57;;;;;;;;;;5044629;28;20029;-78
2022/08/19 03:22:04;;;;;;;10.77;4.10;;;;;;;;;;5038586;28;20094;-78
2022/08/19 03:24:30;;;;;;;8.10;3.85;;;;;;;;;;5043044;28;20017;-78
2022/08/19 03:26:57;;;;;;;13.85;3.75;;;;;;;;;;5041375;28;20508;-78
2022/08/19 03:29:22;;;;;;;18.40;4.63;;;;;;;;;;5051481;28;20059;-78
2022/08/19 03:31:48;;;;;;;8.80;3.88;;;;;;;;;;5039332;28;20376;-78
2022/08/19 03:34:15;;;;;;;11.00;4.07;;;;;;;;;;5036215;28;20025;-78
2022/08/19 03:36:40;;;;;;;13.52;3.85;;;;;;;;;;5043687;28;20377;-78
2022/08/19 03:39:08;;;;;;;8.70;4.35;;;;;;;;;;5043095;28;20024;-78
2022/08/19 03:41:37;;;;;;;12.13;4.00;;;;;;;;;;5050859;28;20029;-78
2022/08/19 03:44:04;;;;;;;7.47;3.78;;;;;;;;;;5034436;28;20034;-78
2022/08/19 03:46:31;;;;;;;10.90;4.10;;;;;;;;;;5041205;28;20044;-78
2022/08/19 03:48:58;;;;;;;13.88;4.30;;;;;;;;;;5048188;28;20033;-79
2022/08/19 03:51:24;;;;;;;19.20;4.60;;;;;;;;;;5052049;28;20067;-82
2022/08/19 03:53:50;;;;;;;14.60;4.45;;;;;;;;;;5049279;28;20017;-82
2022/08/19 03:56:16;;;;;;;10.00;4.13;;;;;;;;;;5052153;28;20388;-79
2022/08/19 03:58:41;;;;;;;8.45;3.80;;;;;;;;;;5047778;28;20168;-79
2022/08/19 04:01:07;;;;;;;11.80;4.97;;;;;;;;;;5042806;28;20021;-80
2022/08/19 04:03:34;;;;;;;14.05;4.63;;;;;;;;;;5045542;28;20040;-80
2022/08/19 04:05:59;;;;;;;18.83;5.78;;;;;;;;;;5047607;28;20025;-78
2022/08/19 04:08:24;;;;;;;11.90;4.75;;;;;;;;;;5038444;28;20033;-77
2022/08/19 04:10:50;;;;;;;11.45;4.32;;;;;;;;;;5050701;28;20124;-77
2022/08/19 04:13:16;;;;;;;22.05;4.85;;;;;;;;;;5038245;28;20108;-77
2022/08/19 04:15:42;;;;;;;22.83;5.22;;;;;;;;;;5040019;28;20063;-80
2022/08/19 04:18:08;;;;;;;16.30;4.68;;;;;;;;;;5042001;28;20075;-81
2022/08/19 04:20:44;;;;;;;14.82;5.00;;;;;;;;;;5043638;28;20033;-81
2022/08/19 04:23:09;;;;;;;14.05;5.00;;;;;;;;;;5040219;28;20075;-81
2022/08/19 04:25:36;;;;;;;13.55;4.05;;;;;;;;;;5040251;28;20033;-81
2022/08/19 04:28:01;;;;;;;17.90;5.30;;;;;;;;;;5051013;28;20082;-79
2022/08/19 04:30:26;;;;;;;16.17;5.05;;;;;;;;;;5043700;28;20036;-81
2022/08/19 04:32:52;;;;;;;16.38;5.07;;;;;;;;;;5034355;28;20036;-78
2022/08/19 04:35:17;;;;;;;11.43;5.00;;;;;;;;;;5044516;28;20021;-80
2022/08/19 04:37:42;;;;;;;17.50;5.30;;;;;;;;;;5037169;28;20030;-79
2022/08/19 04:42:53;;;;;;;12.15;4.55;;;;;;;;;;5036361;28;20060;-80
2022/08/19 04:45:18;;;;;;;16.55;4.93;;;;;;;;;;5037114;28;20025;-81
2022/08/19 04:47:44;;;;;;;19.90;5.03;;;;;;;;;;5034202;28;20519;-77
2022/08/19 04:50:11;;;;;;;21.20;4.65;;;;;;;;;;5049941;28;20067;-77
2022/08/19 04:52:36;;;;;;;19.38;4.47;;;;;;;;;;5049274;28;20029;-80
2022/08/19 04:55:01;;;;;;;16.30;4.25;;;;;;;;;;5040036;28;20028;-79
2022/08/19 04:57:27;;;;;;;15.30;4.80;;;;;;;;;;5043550;28;20014;-81
2022/08/19 04:59:55;;;;;;;20.58;5.10;;;;;;;;;;5040366;28;20021;-81
2022/08/19 05:02:24;;;;;;;23.80;5.78;;;;;;;;;;5039622;28;20032;-80
2022/08/19 05:04:49;;;;;;;20.85;5.13;;;;;;;;;;5046878;28;20024;-79
2022/08/19 05:07:15;;;;;;;20.95;5.53;;;;;;;;;;5039680;28;20116;-79
2022/08/19 05:09:40;;;;;;;21.98;4.68;;;;;;;;;;5042536;28;20036;-77
2022/08/19 05:12:06;;;;;;;21.75;4.75;;;;;;;;;;5044425;28;20048;-78
2022/08/19 05:14:31;;;;;;;15.25;4.82;;;;;;;;;;5042360;28;20029;-77
2022/08/19 05:16:56;;;;;;;11.57;4.45;;;;;;;;;;5035077;28;20025;-78
2022/08/19 05:24:49;;;;;;;17.60;5.22;;;;;;;;;;5042790;28;20132;-77
2022/08/19 05:27:14;;;;;;;15.32;4.57;;;;;;;;;;5043141;28;20473;-77
2022/08/19 05:29:39;;;;;;;20.67;5.18;;;;;;;;;;5049512;28;20428;-76
2022/08/19 05:32:09;;;;;;;18.92;4.90;;;;;;;;;;5038866;28;20048;-76
2022/08/19 05:34:35;;;;;;;23.42;5.07;;;;;;;;;;5046743;28;20028;-76
2022/08/19 05:37:01;;;;;;;18.75;4.82;;;;;;;;;;5048761;28;20017;-76
2022/08/19 05:39:27;;;;;;;18.67;4.63;;;;;;;;;;5036596;28;20028;-76
2022/08/19 05:41:57;;;;;;;21.35;4.63;;;;;;;;;;5039764;28;20029;-77
2022/08/19 05:44:23;;;;;;;16.45;4.75;;;;;;;;;;5043117;28;20025;-77
2022/08/19 05:46:48;;;;;;;23.65;5.07;;;;;;;;;;5051586;28;20021;-77
2022/08/19 05:49:15;;;;;;;25.77;5.15;;;;;;;;;;5049527;28;20366;-76
2022/08/19 05:51:40;;;;;;;17.20;4.57;;;;;;;;;;5044797;28;20036;-77
2022/08/19 05:54:07;;;;;;;22.77;4.80;;;;;;;;;;5037977;28;20021;-77
2022/08/19 05:56:34;;;;;;;14.77;4.88;;;;;;;;;;5045446;28;20045;-77
2022/08/19 05:59:00;;;;;;;16.60;5.63;;;;;;;;;;5040240;28;20342;-81
2022/08/19 06:01:26;;;;;;;6.18;3.10;;;;;;;;;;5042220;28;20401;-80
2022/08/19 06:03:52;;;;;;;88.82;7.03;;;;;;;;;;5039314;28;20037;-78
2022/08/19 06:06:17;;;;;;;189.43;11.45;;;;;;;;;;5043134;28;20018;-80
2022/08/19 06:08:50;;;;;;;33.58;3.33;;;;;;;;;;5049016;28;20361;-78
2022/08/19 06:11:32;;;;;;;76.37;4.93;;;;;;;;;;5047071;28;20033;-83
2022/08/19 06:13:59;;;;;;;26.25;2.30;;;;;;;;;;5040825;28;20389;-79
2022/08/19 06:16:25;;;;;;;8.90;1.50;;;;;;;;;;5039134;28;20029;-78
2022/08/19 06:18:53;;;;;;;4.93;1.58;;;;;;;;;;5036751;28;20022;-84
2022/08/19 06:21:23;;;;;;;10.68;1.38;;;;;;;;;;5040039;28;20032;-78
2022/08/19 06:23:50;;;;;;;6.00;1.27;;;;;;;;;;5046691;28;20104;-78
2022/08/19 06:26:16;;;;;;;5.03;1.50;;;;;;;;;;5052448;28;20571;-78
2022/08/19 06:28:44;;;;;;;5.70;1.25;;;;;;;;;;5037845;28;20041;-81
2022/08/19 06:31:10;;;;;;;2.97;1.25;;;;;;;;;;5043666;28;20031;-84
2022/08/19 06:33:35;;;;;;;5.75;1.35;;;;;;;;;;5049532;28;20096;-79
2022/08/19 06:36:01;;;;;;;3.83;1.13;;;;;;;;;;5044540;28;20021;-78
2022/08/19 06:38:26;;;;;;;4.65;1.48;;;;;;;;;;5052948;28;20036;-83
2022/08/19 06:40:59;;;;;;;6.20;1.27;;;;;;;;;;5045422;28;20117;-78
2022/08/19 06:43:24;;;;;;;7.40;1.30;;;;;;;;;;5036255;28;20088;-78
2022/08/19 06:45:51;;;;;;;7.25;1.77;;;;;;;;;;5039867;28;20034;-81
2022/08/19 06:48:16;;;;;;;11.48;1.98;;;;;;;;;;5047964;28;20112;-79
2022/08/19 06:50:42;;;;;;;9.98;2.00;;;;;;;;;;5044665;28;20108;-85
2022/08/19 06:53:07;;;;;;;9.57;1.45;;;;;;;;;;5039847;28;20028;-79
2022/08/19 06:55:32;;;;;;;4.88;1.48;;;;;;;;;;5042499;28;20028;-81
2022/08/19 06:58:01;;;;;;;8.98;1.85;;;;;;;;;;5046196;28;20064;-81
2022/08/19 07:00:26;;;;;;;4.50;1.45;;;;;;;;;;5035126;28;20057;-80
2022/08/19 07:02:52;;;;;;;6.18;1.67;;;;;;;;;;5037540;28;20060;-81
2022/08/19 07:05:18;;;;;;;9.43;1.77;;;;;;;;;;5035220;28;20022;-81
2022/08/19 07:07:43;;;;;;;7.07;2.05;;;;;;;;;;5037545;28;20029;-81
2022/08/19 07:10:09;;;;;;;6.75;1.67;;;;;;;;;;5036608;28;20381;-80
2022/08/19 07:12:35;;;;;;;9.57;2.13;;;;;;;;;;5037090;28;20056;-87
2022/08/19 07:15:00;;;;;;;8.23;1.67;;;;;;;;;;5036082;28;20060;-79
2022/08/19 07:17:26;;;;;;;8.95;2.03;;;;;;;;;;5047486;28;20024;-79
2022/08/19 07:19:51;;;;;;;14.35;1.90;;;;;;;;;;5035033;28;20076;-81
2022/08/19 07:22:17;;;;;;;8.30;2.17;;;;;;;;;;5033063;28;20045;-83
2022/08/19 07:24:43;;;;;;;8.25;2.30;;;;;;;;;;5034607;28;20517;-86
2022/08/19 07:27:09;;;;;;;11.40;2.25;;;;;;;;;;5037646;28;20099;-81
2022/08/19 07:29:35;;;;;;;8.38;2.38;;;;;;;;;;5036417;28;20048;-79
2022/08/19 07:32:01;;;;;;;12.73;2.38;;;;;;;;;;5036943;28;20457;-77
2022/08/19 07:34:27;;;;;;;11.30;2.78;;;;;;;;;;5034384;28;20453;-77
2022/08/19 07:36:54;;;;;;;10.95;2.13;;;;;;;;;;5044709;28;20357;-77
2022/08/19 07:39:20;;;;;;;10.98;2.42;;;;;;;;;;5042883;28;20037;-77
2022/08/19 07:41:46;;;;;;;9.77;2.55;;;;;;;;;;5039644;28;20027;-77
2022/08/19 07:44:12;;;;;;;10.00;2.50;;;;;;;;;;5023072;28;20033;-77
2022/08/19 07:46:39;;;;;;;15.82;2.70;;;;;;;;;;5043703;28;20131;-79
2022/08/19 07:49:05;;;;;;;10.05;2.83;;;;;;;;;;5041623;28;20076;-77
2022/08/19 07:51:31;;;;;;;9.20;2.80;;;;;;;;;;5038896;28;20120;-83
2022/08/19 07:53:56;;;;;;;8.77;2.58;;;;;;;;;;5041457;28;20105;-81
2022/08/19 07:56:22;;;;;;;12.52;2.40;;;;;;;;;;5044496;28;20032;-78
2022/08/19 07:58:48;;;;;;;17.55;3.15;;;;;;;;;;5037643;28;20135;-78
2022/08/19 08:01:18;;;;;;;11.00;2.97;;;;;;;;;;5039940;28;20021;-79
2022/08/19 08:09:12;;;;;;;9.07;2.72;;;;;;;;;;5034482;28;20048;-80
2022/08/19 08:11:49;;;;;;;9.55;2.83;;;;;;;;;;5043497;28;20033;-80
2022/08/19 08:14:16;;;;;;;13.02;2.80;;;;;;;;;;5044436;28;20067;-79
2022/08/19 08:16:43;;;;;;;11.15;3.30;;;;;;;;;;5040335;28;20064;-78
2022/08/19 08:19:09;;;;;;;13.23;2.83;;;;;;;;;;5045525;28;20028;-80
2022/08/19 08:21:34;;;;;;;9.15;2.72;;;;;;;;;;5043542;28;20087;-80
2022/08/19 08:23:59;;;;;;;10.32;2.60;;;;;;;;;;5040463;28;20380;-79
2022/08/19 08:26:25;;;;;;;8.77;2.10;;;;;;;;;;5039026;28;20086;-79
2022/08/19 08:28:50;;;;;;;8.85;2.65;;;;;;;;;;5041611;28;20030;-79
2022/08/19 08:31:16;;;;;;;10.68;2.60;;;;;;;;;;5033065;28;20688;-79
2022/08/19 08:33:42;;;;;;;9.73;2.60;;;;;;;;;;5031307;28;20113;-80
2022/08/19 08:36:08;;;;;;;7.95;2.15;;;;;;;;;;5024629;28;20033;-79
2022/08/19 08:38:34;;;;;;;15.07;2.92;;;;;;;;;;5043320;28;20029;-79
2022/08/19 08:41:06;;;;;;;14.23;2.78;;;;;;;;;;5042927;28;20025;-79
2022/08/19 08:43:31;;;;;;;;;;;;;;;;;;5040529;28;20138;-79
2022/08/19 08:46:01;;;;;;;9.77;2.17;;;;;;;;;;5044388;28;19955;-79
2022/08/19 08:48:31;;;;;;;9.43;2.65;;;;;;;;;;5045852;28;20508;-79
2022/08/19 08:50:57;;;;;;;9.82;2.80;;;;;;;;;;5033656;28;20049;-79
2022/08/19 08:53:23;;;;;;;12.38;2.50;;;;;;;;;;5042753;28;20044;-79
2022/08/19 08:55:48;;;;;;;12.75;2.67;;;;;;;;;;5037262;28;20025;-79
2022/08/19 08:58:17;;;;;;;12.40;3.00;;;;;;;;;;5034281;28;20018;-79
2022/08/19 09:00:44;;;;;;;9.90;2.28;;;;;;;;;;5041021;28;20025;-79
2022/08/19 09:03:16;;;;;;;8.43;2.60;;;;;;;;;;5039146;28;20021;-80
2022/08/19 09:05:47;;;;;;;12.23;3.05;;;;;;;;;;5045350;28;20017;-79
2022/08/19 09:08:33;;;;;;;9.17;2.43;;;;;;;;;;5044840;28;20480;-79
2022/08/19 09:10:58;;;;;;;10.50;2.70;;;;;;;;;;5035971;28;20383;-80
2022/08/19 09:13:27;;;;;;;7.88;2.20;;;;;;;;;;5049423;28;20025;-79
2022/08/19 09:15:54;;;;;;;8.68;2.70;;;;;;;;;;5045972;28;20024;-79
2022/08/19 09:18:20;;;;;;;10.20;2.47;;;;;;;;;;5029411;28;20024;-80
2022/08/19 09:20:49;;;;;;;11.52;2.90;;;;;;;;;;5039277;28;20038;-80
2022/08/19 09:23:15;;;;;;;13.10;2.60;;;;;;;;;;5032996;28;20053;-79
2022/08/19 09:25:40;;;;;;;9.07;2.90;;;;;;;;;;5036642;28;20030;-80
2022/08/19 09:28:06;;;;;;;14.77;2.95;;;;;;;;;;5036411;28;20064;-79
2022/08/19 09:30:33;;;;;;;11.32;2.78;;;;;;;;;;5043094;28;20065;-80
2022/08/19 09:32:59;;;;;;;9.38;2.33;;;;;;;;;;5049461;28;20020;-81
2022/08/19 09:35:26;;;;;;;10.50;2.60;;;;;;;;;;5050063;28;20083;-80
2022/08/19 09:37:51;;;;;;;12.13;2.60;;;;;;;;;;5047091;28;20080;-79
2022/08/19 09:40:17;;;;;;;10.23;2.72;;;;;;;;;;5047244;28;20041;-78
2022/08/19 09:42:43;;;;;;;12.77;2.88;;;;;;;;;;5051654;28;20064;-79
2022/08/19 09:45:09;;;;;;;12.00;2.75;;;;;;;;;;5036477;28;20017;-79
2022/08/19 09:47:37;;;;;;;8.82;2.55;;;;;;;;;;5036733;28;20027;-79
2022/08/19 09:50:03;;;;;;;6.03;1.75;;;;;;;;;;5045056;28;20535;-79
2022/08/19 09:52:29;;;;;;;11.23;2.50;;;;;;;;;;5039691;28;20082;-80
2022/08/19 09:54:54;;;;;;;7.97;2.20;;;;;;;;;;5043956;28;20017;-79
2022/08/19 09:57:19;;;;;;;10.93;2.60;;;;;;;;;;5039411;28;20021;-79
2022/08/19 09:59:44;;;;;;;10.60;2.50;;;;;;;;;;5037307;28;20040;-79
2022/08/19 10:02:10;;;;;;;7.28;1.73;;;;;;;;;;5035141;28;20029;-79
2022/08/19 10:07:19;;;;;;;12.68;2.20;;;;;;;;;;5048030;28;20380;-80
2022/08/19 10:09:45;;;;;;;10.02;2.25;;;;;;;;;;5042064;28;20034;-80
2022/08/19 10:12:10;;;;;;;9.57;2.00;;;;;;;;;;5037723;28;20041;-80
2022/08/19 10:14:35;;;;;;;10.05;2.00;;;;;;;;;;5035351;28;20089;-80
2022/08/19 10:17:02;;;;;;;6.38;1.85;;;;;;;;;;5045599;28;20102;-81
2022/08/19 10:19:32;;;;;;;8.80;2.03;;;;;;;;;;5035193;28;20025;-79
2022/08/19 10:21:57;;;;;;;7.95;2.00;;;;;;;;;;5037794;28;20025;-79
2022/08/19 10:24:24;;;;;;;9.63;1.70;;;;;;;;;;5037559;28;20029;-79
2022/08/19 10:26:49;;;;;;;10.23;2.13;;;;;;;;;;5041607;28;20013;-80
2022/08/19 10:29:16;;;;;;;10.25;1.90;;;;;;;;;;5031770;28;20791;-80
2022/08/19 10:31:41;;;;;;;9.10;2.03;;;;;;;;;;5035481;28;20029;-80
2022/08/19 10:34:07;;;;;;;9.27;1.92;;;;;;;;;;5043548;28;20040;-80
2022/08/19 10:36:35;;;;;;;8.60;2.15;;;;;;;;;;5033109;28;20017;-80
2022/08/19 10:39:02;;;;;;;10.15;2.22;;;;;;;;;;5043990;28;20033;-80
2022/08/19 10:41:28;;;;;;;10.98;2.60;;;;;;;;;;5028574;28;20029;-80
2022/08/19 10:43:58;;;;;;;18.55;2.85;;;;;;;;;;5035183;28;20021;-80
2022/08/19 10:46:24;;;;;;;9.38;1.58;;;;;;;;;;5040557;28;20033;-80
2022/08/19 10:48:50;;;;;;;13.25;2.50;;;;;;;;;;5043606;28;20428;-80
2022/08/19 10:54:05;;;;;;;8.57;1.67;;;;;;;;;;5032216;28;20041;-80
2022/08/19 10:56:50;;;;;;;7.13;1.95;;;;;;;;;;5038382;28;20029;-80
2022/08/19 10:59:20;;;;;;;8.15;1.60;;;;;;;;;;5029991;28;20392;-80
2022/08/19 11:01:50;;;;;;;8.80;1.88;;;;;;;;;;5043586;28;20118;-80
2022/08/19 11:04:19;;;;;;;9.38;1.55;;;;;;;;;;5026386;28;20037;-80
2022/08/19 11:06:47;;;;;;;7.38;1.55;;;;;;;;;;5036363;28;20017;-80
2022/08/19 11:09:13;;;;;;;6.05;1.85;;;;;;;;;;5048347;28;20025;-80
2022/08/19 11:11:42;;;;;;;8.32;1.73;;;;;;;;;;5034862;28;20029;-80
2022/08/19 11:14:08;;;;;;;10.55;2.17;;;;;;;;;;5035478;28;20014;-80
2022/08/19 11:16:33;;;;;;;9.00;1.90;;;;;;;;;;5037601;28;20025;-79
2022/08/19 11:18:59;;;;;;;7.22;1.85;;;;;;;;;;5048172;28;20055;-79
2022/08/19 11:21:26;;;;;;;4.85;1.63;;;;;;;;;;5043982;28;20076;-79
2022/08/19 11:23:52;;;;;;;7.30;1.80;;;;;;;;;;5039267;28;20088;-80
2022/08/19 11:26:18;;;;;;;8.32;1.88;;;;;;;;;;5042088;28;20059;-79
2022/08/19 11:28:44;;;;;;;10.80;1.92;;;;;;;;;;5035873;28;20449;-79
2022/08/19 11:31:17;;;;;;;8.93;1.67;;;;;;;;;;5042218;28;20029;-79
2022/08/19 11:33:42;;;;;;;9.75;1.55;;;;;;;;;;5037418;28;20082;-79
2022/08/19 11:36:08;;;;;;;9.55;2.00;;;;;;;;;;5041358;28;20056;-80
2022/08/19 11:38:35;;;;;;;5.63;1.38;;;;;;;;;;5045066;28;20032;-79
2022/08/19 11:41:01;;;;;;;6.55;1.42;;;;;;;;;;5048625;28;20036;-79
2022/08/19 11:43:28;;;;;;;5.38;1.35;;;;;;;;;;5040861;28;20028;-79
2022/08/19 11:45:54;;;;;;;6.30;1.60;;;;;;;;;;5038281;28;20453;-77
2022/08/19 11:48:22;;;;;;;7.88;1.60;;;;;;;;;;5026419;28;20039;-78
2022/08/19 11:50:51;;;;;;;6.05;1.40;;;;;;;;;;5029003;28;20027;-79
2022/08/19 11:53:19;;;;;;;5.05;1.27;;;;;;;;;;5028817;28;20025;-78
2022/08/19 11:55:45;;;;;;;6.47;1.67;;;;;;;;;;5033836;28;20026;-79
2022/08/19 11:58:11;;;;;;;7.00;1.33;;;;;;;;;;5038832;28;20021;-80
2022/08/19 12:00:37;;;;;;;4.63;1.35;;;;;;;;;;5034925;28;20075;-79
2022/08/19 12:03:03;;;;;;;5.07;1.20;;;;;;;;;;5034562;28;20091;-78
2022/08/19 12:05:28;;;;;;;10.25;1.38;;;;;;;;;;5034024;28;20021;-79
2022/08/19 12:07:54;;;;;;;4.97;1.45;;;;;;;;;;5037709;28;20377;-79
2022/08/19 12:10:19;;;;;;;5.50;1.17;;;;;;;;;;5031048;28;20469;-79
2022/08/19 12:12:45;;;;;;;5.97;1.20;;;;;;;;;;5039049;28;20419;-78
2022/08/19 12:15:11;;;;;;;7.38;1.30;;;;;;;;;;5031428;28;20044;-79
2022/08/19 12:17:37;;;;;;;6.15;1.45;;;;;;;;;;5034260;28;20037;-79
2022/08/19 12:20:02;;;;;;;6.70;1.30;;;;;;;;;;5036022;28;20115;-79
2022/08/19 12:22:28;;;;;;;4.82;1.42;;;;;;;;;;5033147;28;20473;-79
2022/08/19 12:24:54;;;;;;;8.32;1.25;;;;;;;;;;5031860;28;20515;-79
2022/08/19 12:27:19;;;;;;;8.38;1.58;;;;;;;;;;5031769;28;20009;-79
2022/08/19 12:29:45;;;;;;;4.60;1.30;;;;;;;;;;5031378;28;20044;-79
2022/08/19 12:32:10;;;;;;;8.43;1.40;;;;;;;;;;5034687;28;20148;-79
2022/08/19 12:34:36;;;;;;;5.68;1.20;;;;;;;;;;5031659;28;20045;-79
2022/08/19 12:37:03;;;;;;;6.50;1.13;;;;;;;;;;5035126;28;20025;-79
2022/08/19 12:39:30;;;;;;;5.75;1.30;;;;;;;;;;5031607;28;20476;-79
2022/08/19 12:41:55;;;;;;;5.25;1.30;;;;;;;;;;5033020;28;20009;-79
2022/08/19 12:44:21;;;;;;;5.72;1.20;;;;;;;;;;5031911;28;20490;-79
2022/08/19 12:46:47;;;;;;;4.55;1.25;;;;;;;;;;5031793;28;20031;-79
2022/08/19 12:49:12;;;;;;;7.72;1.50;;;;;;;;;;5033260;28;20474;-79
2022/08/19 12:51:37;;;;;;;6.90;1.60;;;;;;;;;;5032476;28;20026;-79
2022/08/19 12:54:04;;;;;;;7.32;1.60;;;;;;;;;;5033851;28;20477;-79
2022/08/19 12:56:29;;;;;;;5.18;1.10;;;;;;;;;;5034567;28;20025;-79
2022/08/19 12:58:55;;;;;;;4.68;1.23;;;;;;;;;;5033619;28;20034;-79
2022/08/19 13:01:20;;;;;;;6.40;1.52;;;;;;;;;;5029199;28;20063;-79
2022/08/19 13:03:46;;;;;;;9.18;1.80;;;;;;;;;;5033319;28;20030;-79
2022/08/19 13:06:12;;;;;;;5.85;1.10;;;;;;;;;;5033891;28;20028;-79
2022/08/19 13:08:38;;;;;;;9.23;1.55;;;;;;;;;;5032517;28;20388;-78
2022/08/19 13:11:17;;;;;;;8.60;1.63;;;;;;;;;;5031419;28;20453;-79
2022/08/19 13:13:43;;;;;;;4.75;1.25;;;;;;;;;;5027382;28;20439;-79
2022/08/19 13:16:10;;;;;;;10.55;1.60;;;;;;;;;;5032592;28;20038;-79
2022/08/19 13:18:36;;;;;;;8.57;1.50;;;;;;;;;;5035542;28;20846;-79
2022/08/19 13:21:05;;;;;;;5.72;1.65;;;;;;;;;;5033201;28;20038;-79
2022/08/19 13:23:31;;;;;;;12.93;2.40;;;;;;;;;;5030759;28;20057;-79
2022/08/19 13:26:00;;;;;;;8.52;1.30;;;;;;;;;;5030097;28;20904;-79
2022/08/19 13:28:26;;;;;;;6.93;1.70;;;;;;;;;;5031957;28;20105;-79
2022/08/19 13:33:35;;;;;;;8.27;1.50;;;;;;;;;;5029794;28;20083;-78
2022/08/19 13:36:00;;;;;;;7.70;1.80;;;;;;;;;;5030983;28;20034;-79
2022/08/19 13:38:26;;;;;;;7.50;2.08;;;;;;;;;;5033791;28;20017;-79
2022/08/19 13:40:53;;;;;;;8.85;1.63;;;;;;;;;;5032734;28;20487;-79
2022/08/19 13:43:21;;;;;;;9.55;1.83;;;;;;;;;;5030182;28;20365;-79
2022/08/19 13:45:47;;;;;;;8.23;1.70;;;;;;;;;;5029278;28;20095;-78
2022/08/19 13:48:12;;;;;;;10.40;2.03;;;;;;;;;;5030268;28;20457;-79
2022/08/19 13:50:40;;;;;;;11.00;2.00;;;;;;;;;;5029359;28;20042;-78
2022/08/19 13:53:06;;;;;;;11.55;1.90;;;;;;;;;;5033580;28;20119;-78
2022/08/19 13:55:31;;;;;;;15.23;2.28;;;;;;;;;;5032039;28;20449;-79
2022/08/19 13:57:57;;;;;;;10.55;1.92;;;;;;;;;;5036121;28;20362;-78
2022/08/19 14:00:25;;;;;;;8.60;2.03;;;;;;;;;;5033186;28;20021;-79
2022/08/19 14:02:51;;;;;;;9.98;1.48;;;;;;;;;;5041789;28;20022;-79
2022/08/19 14:05:17;;;;;;;8.55;1.98;;;;;;;;;;5032510;28;20033;-79
2022/08/19 14:07:42;;;;;;;9.63;1.52;;;;;;;;;;5037717;28;20032;-79
2022/08/19 14:10:09;;;;;;;10.40;1.52;;;;;;;;;;5034303;28;20043;-79
2022/08/19 14:12:34;;;;;;;14.40;2.25;;;;;;;;;;5038328;28;20115;-79
2022/08/19 14:15:00;;;;;;;12.25;1.90;;;;;;;;;;5032612;28;20398;-79
2022/08/19 14:17:25;;;;;;;8.52;2.10;;;;;;;;;;5037583;28;20025;-79
2022/08/19 14:19:57;;;;;;;7.18;2.00;;;;;;;;;;5033748;28;20045;-79
2022/08/19 14:22:22;;;;;;;6.82;1.80;;;;;;;;;;5039059;28;20072;-79
2022/08/19 14:24:48;;;;;;;7.47;1.50;;;;;;;;;;5032759;28;20150;-79
2022/08/19 14:27:14;;;;;;;9.45;1.75;;;;;;;;;;5033328;28;20021;-79
2022/08/19 14:29:39;;;;;;;9.30;1.80;;;;;;;;;;5032541;28;20041;-79
2022/08/19 14:32:05;;;;;;;10.40;2.00;;;;;;;;;;5036702;28;20040;-79
2022/08/19 14:34:31;;;;;;;6.68;1.83;;;;;;;;;;5031761;28;20049;-79
2022/08/19 14:36:57;;;;;;;7.45;1.38;;;;;;;;;;5036068;28;20477;-79
2022/08/19 14:39:22;;;;;;;9.25;1.70;;;;;;;;;;5033054;28;20033;-79
2022/08/19 14:41:47;;;;;;;8.77;1.58;;;;;;;;;;5039437;28;20120;-79
2022/08/19 14:44:12;;;;;;;8.32;1.95;;;;;;;;;;5031682;28;20100;-79
2022/08/19 14:46:38;;;;;;;8.80;1.42;;;;;;;;;;5033842;28;20071;-79
2022/08/19 14:49:04;;;;;;;7.22;1.70;;;;;;;;;;5034020;28;20091;-79
2022/08/19 14:51:29;;;;;;;7.57;1.65;;;;;;;;;;5035824;28;20088;-79
2022/08/19 14:53:54;;;;;;;7.13;1.63;;;;;;;;;;5034959;28;20432;-79
2022/08/19 14:56:21;;;;;;;7.53;1.35;;;;;;;;;;5034985;28;20025;-79
2022/08/19 14:58:47;;;;;;;6.90;1.23;;;;;;;;;;5034650;28;20040;-79